createdAt,value
2023-03-03T00:02:49.037Z,4.80
2023-03-03T00:05:54.872Z,4.68
2023-03-03T00:09:00.088Z,4.64
2023-03-03T00:12:22.742Z,4.67
2023-03-03T00:15:28.686Z,4.67
2023-03-03T00:18:37.889Z,4.60
2023-03-03T00:21:45.629Z,4.48
2023-03-03T00:24:50.947Z,4.64
2023-03-03T00:27:56.234Z,4.53
2023-03-03T00:31:03.526Z,4.46
2023-03-03T00:34:24.889Z,4.43
2023-03-03T00:37:33.029Z,4.37
2023-03-03T00:40:39.069Z,4.35
2023-03-03T00:43:44.306Z,4.29
2023-03-03T00:46:49.394Z,4.21
2023-03-03T00:49:56.432Z,4.16
2023-03-03T00:53:04.981Z,4.23
2023-03-03T00:56:10.126Z,4.19
2023-03-03T00:59:15.284Z,4.35
2023-03-03T01:02:20.566Z,4.26
2023-03-03T01:05:27.120Z,4.33
2023-03-03T01:08:32.538Z,4.36
2023-03-03T01:11:37.680Z,4.48
2023-03-03T01:14:43.310Z,4.37
2023-03-03T01:17:48.418Z,4.42
2023-03-03T01:20:55.055Z,4.35
2023-03-03T01:24:00.345Z,4.20
2023-03-03T01:27:05.690Z,4.25
2023-03-03T01:30:13.723Z,4.18
2023-03-03T01:33:18.994Z,4.20
2023-03-03T01:36:27.448Z,4.11
2023-03-03T01:39:34.706Z,4.10
2023-03-03T01:42:39.515Z,4.03
2023-03-03T01:46:02.292Z,3.98
2023-03-03T01:49:12.720Z,3.91
2023-03-03T01:52:28.152Z,4.00
2023-03-03T01:55:36.748Z,3.91
2023-03-03T01:58:44.801Z,4.16
2023-03-03T02:01:50.587Z,4.15
2023-03-03T02:04:56.013Z,4.08
2023-03-03T02:08:03.851Z,4.14
2023-03-03T02:11:09.262Z,4.16
2023-03-03T02:14:14.468Z,4.28
2023-03-03T02:17:21.310Z,4.20
2023-03-03T02:20:48.426Z,4.20
2023-03-03T02:24:01.728Z,4.21
2023-03-03T02:27:08.374Z,4.29
2023-03-03T02:30:17.366Z,4.17
2023-03-03T02:33:22.463Z,4.17
2023-03-03T02:36:30.725Z,4.17
2023-03-03T02:39:36.314Z,4.14
2023-03-03T02:42:42.939Z,4.20
2023-03-03T02:45:48.164Z,4.19
2023-03-03T02:48:53.411Z,4.13
2023-03-03T02:51:59.061Z,4.19
2023-03-03T02:55:04.774Z,4.12
2023-03-03T02:58:10.991Z,4.00
2023-03-03T03:01:16.175Z,3.95
2023-03-03T03:04:23.296Z,3.90
2023-03-03T03:07:29.441Z,3.90
2023-03-03T03:10:35.144Z,3.84
2023-03-03T03:13:41.942Z,3.86
2023-03-03T03:16:47.125Z,3.91
2023-03-03T03:19:52.032Z,3.96
2023-03-03T03:22:58.148Z,3.83
2023-03-03T03:26:03.524Z,3.83
2023-03-03T03:29:13.392Z,3.85
2023-03-03T03:32:18.668Z,3.77
2023-03-03T03:35:23.802Z,3.68
2023-03-03T03:38:31.682Z,3.64
2023-03-03T03:41:37.315Z,3.56
2023-03-03T03:44:44.327Z,3.53
2023-03-03T03:47:49.122Z,3.51
2023-03-03T03:50:54.523Z,3.43
2023-03-03T03:54:01.784Z,3.33
2023-03-03T03:57:07.105Z,3.29
2023-03-03T04:00:15.529Z,3.28
2023-03-03T04:03:27.550Z,3.18
2023-03-03T04:06:32.886Z,3.15
2023-03-03T04:09:40.000Z,3.12
2023-03-03T04:12:45.524Z,3.13
2023-03-03T04:15:54.079Z,3.04
2023-03-03T04:18:59.801Z,3.01
2023-03-03T04:22:07.260Z,2.96
2023-03-03T04:25:16.065Z,2.94
2023-03-03T04:28:22.460Z,2.80
2023-03-03T04:31:30.169Z,2.84
2023-03-03T04:34:35.559Z,2.77
2023-03-03T04:37:41.130Z,2.81
2023-03-03T04:40:46.809Z,2.77
2023-03-03T04:43:52.123Z,2.79
2023-03-03T04:46:58.615Z,2.78
2023-03-03T04:50:03.642Z,2.74
2023-03-03T04:53:11.874Z,2.65
2023-03-03T04:56:19.000Z,2.72
2023-03-03T04:59:24.119Z,2.69
2023-03-03T05:02:30.632Z,2.64
2023-03-03T05:05:35.928Z,2.62
2023-03-03T05:08:43.254Z,2.60
2023-03-03T05:11:48.982Z,2.56
2023-03-03T05:14:54.088Z,2.52
2023-03-03T05:18:01.180Z,2.57
2023-03-03T05:21:06.683Z,2.58
2023-03-03T05:24:14.708Z,2.65
2023-03-03T05:27:19.773Z,2.65
2023-03-03T05:30:25.048Z,2.66
2023-03-03T05:33:31.630Z,2.62
2023-03-03T05:36:36.934Z,2.66
2023-03-03T05:39:43.742Z,2.69
2023-03-03T05:42:48.989Z,2.71
2023-03-03T05:45:57.841Z,2.67
2023-03-03T05:49:04.638Z,2.64
2023-03-03T05:52:10.926Z,2.57
2023-03-03T05:55:16.237Z,2.56
2023-03-03T05:58:21.477Z,2.54
2023-03-03T06:01:27.147Z,2.57
2023-03-03T06:04:33.701Z,2.62
2023-03-03T06:07:38.871Z,2.60
2023-03-03T06:10:44.146Z,2.56
2023-03-03T06:13:52.032Z,2.65
2023-03-03T06:16:57.935Z,2.58
2023-03-03T06:20:05.034Z,2.57
2023-03-03T06:23:10.324Z,2.60
2023-03-03T06:26:15.693Z,2.56
2023-03-03T06:29:20.760Z,2.63
2023-03-03T06:32:25.979Z,2.62
2023-03-03T06:35:32.614Z,2.66
2023-03-03T06:38:37.670Z,2.76
2023-03-03T06:41:42.721Z,2.77
2023-03-03T06:44:47.869Z,2.80
2023-03-03T06:47:53.063Z,2.78
2023-03-03T06:50:59.890Z,2.72
2023-03-03T06:54:11.508Z,2.82
2023-03-03T06:57:19.542Z,2.89
2023-03-03T07:00:28.919Z,2.86
2023-03-03T07:03:36.645Z,2.94
2023-03-03T07:06:43.040Z,2.95
2023-03-03T07:09:49.483Z,2.94
2023-03-03T07:12:55.227Z,2.99
2023-03-03T07:16:05.178Z,3.12
2023-03-03T07:19:21.062Z,3.13
2023-03-03T07:22:40.430Z,3.17
2023-03-03T07:25:46.750Z,3.27
2023-03-03T07:28:56.400Z,3.28
2023-03-03T07:32:03.086Z,3.41
2023-03-03T07:35:28.394Z,3.42
2023-03-03T07:38:38.782Z,3.45
2023-03-03T07:41:44.492Z,3.44
2023-03-03T07:44:49.779Z,3.44
2023-03-03T07:47:59.963Z,3.49
2023-03-03T07:51:08.109Z,3.62
2023-03-03T07:54:26.896Z,3.76
2023-03-03T07:57:38.073Z,3.74
2023-03-03T08:01:28.460Z,3.90
2023-03-03T08:04:42.838Z,3.97
2023-03-03T08:07:48.819Z,4.08
2023-03-03T08:10:55.821Z,4.20
2023-03-03T08:14:01.133Z,4.30
2023-03-03T08:17:14.780Z,4.47
2023-03-03T08:20:50.549Z,4.58
2023-03-03T08:23:55.934Z,4.53
2023-03-03T08:27:02.608Z,4.59
2023-03-03T08:30:08.926Z,4.56
2023-03-03T08:33:14.428Z,4.57
2023-03-03T08:36:19.762Z,4.59
2023-03-03T08:39:25.174Z,4.59
2023-03-03T08:42:31.557Z,4.53
2023-03-03T08:45:37.120Z,4.55
2023-03-03T08:48:42.517Z,4.54
2023-03-03T08:51:47.696Z,4.65
2023-03-03T08:54:55.778Z,4.58
2023-03-03T08:58:02.531Z,4.60
2023-03-03T09:01:07.845Z,4.69
2023-03-03T09:04:13.488Z,4.91
2023-03-03T09:07:18.812Z,4.99
2023-03-03T09:10:29.331Z,4.91
2023-03-03T09:13:36.001Z,5.03
2023-03-03T09:16:43.567Z,5.17
2023-03-03T09:19:48.376Z,5.19
2023-03-03T09:22:54.739Z,5.33
2023-03-03T09:26:07.495Z,5.34
2023-03-03T09:29:28.410Z,5.40
2023-03-03T09:32:36.507Z,5.50
2023-03-03T09:35:42.935Z,5.55
2023-03-03T09:38:47.932Z,5.62
2023-03-03T09:42:35.314Z,5.57
2023-03-03T09:45:53.437Z,5.76
2023-03-03T09:49:09.067Z,5.82
2023-03-03T09:52:23.769Z,5.82
2023-03-03T09:55:37.888Z,5.89
2023-03-03T09:58:51.367Z,5.83
2023-03-03T10:02:14.303Z,5.81
2023-03-03T10:05:35.546Z,5.87
2023-03-03T10:08:53.010Z,5.81
2023-03-03T10:12:01.990Z,5.80
2023-03-03T10:15:27.244Z,5.82
2023-03-03T10:18:40.949Z,5.85
2023-03-03T10:21:50.536Z,5.64
2023-03-03T10:25:08.622Z,5.65
2023-03-03T10:28:49.536Z,5.63
2023-03-03T10:32:22.489Z,5.73
2023-03-03T10:36:04.608Z,5.53
2023-03-03T10:39:25.284Z,5.32
2023-03-03T10:42:52.254Z,5.36
2023-03-03T10:46:31.956Z,5.15
2023-03-03T10:49:57.885Z,5.11
2023-03-03T10:53:17.610Z,4.93
2023-03-03T10:56:50.453Z,4.55
2023-03-03T11:00:05.694Z,4.90
2023-03-03T11:03:36.709Z,4.50
2023-03-03T11:06:47.655Z,4.46
2023-03-03T11:10:06.261Z,4.39
2023-03-03T11:13:18.058Z,4.55
2023-03-03T11:16:50.176Z,4.51
2023-03-03T11:20:03.513Z,4.45
2023-03-03T11:23:36.438Z,4.23
2023-03-03T11:26:56.832Z,4.20
2023-03-03T11:30:26.262Z,4.17
2023-03-03T11:33:37.819Z,4.30
2023-03-03T11:36:48.616Z,4.15
2023-03-03T11:39:56.499Z,4.17
2023-03-03T11:43:11.962Z,4.10
2023-03-03T11:46:20.161Z,4.10
2023-03-03T11:49:30.394Z,4.11
2023-03-03T11:52:41.081Z,4.24
2023-03-03T11:55:48.928Z,4.29
2023-03-03T11:59:04.980Z,4.23
2023-03-03T12:02:44.352Z,4.18
2023-03-03T12:06:01.511Z,4.10
2023-03-03T12:09:25.236Z,4.31
2023-03-03T12:12:34.675Z,4.33
2023-03-03T12:15:46.573Z,4.39
2023-03-03T12:19:02.186Z,4.42
2023-03-03T12:22:33.677Z,4.55
2023-03-03T12:25:41.339Z,4.47
2023-03-03T12:28:52.041Z,4.32
2023-03-03T12:32:10.186Z,4.31
2023-03-03T12:35:25.960Z,4.38
2023-03-03T12:38:39.961Z,4.42
2023-03-03T12:41:51.524Z,4.59
2023-03-03T12:45:04.872Z,4.71
2023-03-03T12:48:17.467Z,4.75
2023-03-03T12:51:35.722Z,4.93
2023-03-03T12:54:53.696Z,5.01
2023-03-03T12:58:05.762Z,5.08
2023-03-03T13:01:20.399Z,4.96
2023-03-03T13:04:35.885Z,5.04
2023-03-03T13:07:46.153Z,5.05
2023-03-03T13:10:56.602Z,5.13
2023-03-03T13:14:06.867Z,5.17
2023-03-03T13:17:21.288Z,5.17
2023-03-03T13:20:36.267Z,5.13
2023-03-03T13:23:48.793Z,5.11
2023-03-03T13:26:56.871Z,5.10
2023-03-03T13:30:04.366Z,5.01
2023-03-03T13:33:13.088Z,4.97
2023-03-03T13:36:19.854Z,4.97
2023-03-03T13:39:28.534Z,4.96
2023-03-03T13:42:39.432Z,5.00
2023-03-03T13:45:53.053Z,4.97
2023-03-03T13:49:14.709Z,4.98
2023-03-03T13:52:24.064Z,4.96
2023-03-03T13:55:32.973Z,4.92
2023-03-03T13:58:46.240Z,4.94
2023-03-03T14:01:59.216Z,4.95
2023-03-03T14:05:06.742Z,5.02
2023-03-03T14:08:25.735Z,5.11
2023-03-03T14:11:34.725Z,5.05
2023-03-03T14:14:49.118Z,5.11
2023-03-03T14:18:18.663Z,5.11
2023-03-03T14:21:29.700Z,5.11
2023-03-03T14:24:58.236Z,5.15
2023-03-03T14:28:31.080Z,5.19
2023-03-03T14:31:52.020Z,5.15
2023-03-03T14:35:01.556Z,5.19
2023-03-03T14:38:10.714Z,5.19
2023-03-03T14:41:20.406Z,5.20
2023-03-03T14:44:29.952Z,5.17
2023-03-03T14:47:36.442Z,5.14
2023-03-03T14:50:43.507Z,5.23
2023-03-03T14:53:50.236Z,5.31
2023-03-03T14:57:02.811Z,5.36
2023-03-03T15:00:28.616Z,5.44
2023-03-03T15:03:33.947Z,5.57
2023-03-03T15:06:43.083Z,5.63
2023-03-03T15:09:51.873Z,5.79
2023-03-03T15:12:58.494Z,5.75
2023-03-03T15:16:11.072Z,5.76
2023-03-03T15:19:38.682Z,5.73
2023-03-03T15:22:49.557Z,5.67
2023-03-03T15:26:00.370Z,5.56
2023-03-03T15:29:13.346Z,5.62
2023-03-03T15:32:24.464Z,5.57
2023-03-03T15:35:38.821Z,5.57
2023-03-03T15:38:54.513Z,5.64
2023-03-03T15:42:04.170Z,5.62
2023-03-03T15:45:19.749Z,5.57
2023-03-03T15:48:45.365Z,5.52
2023-03-03T15:52:03.876Z,5.44
2023-03-03T15:55:19.006Z,5.37
2023-03-03T15:58:48.191Z,5.40
2023-03-03T16:02:02.378Z,5.33
2023-03-03T16:05:17.037Z,5.34
2023-03-03T16:08:26.374Z,5.20
2023-03-03T16:11:39.124Z,5.22
2023-03-03T16:14:54.071Z,5.21
2023-03-03T16:18:05.374Z,5.30
2023-03-03T16:21:24.024Z,5.34
2023-03-03T16:24:38.338Z,5.54
2023-03-03T16:27:47.827Z,5.42
2023-03-03T16:30:57.671Z,5.50
2023-03-03T16:34:14.588Z,5.55
2023-03-03T16:37:24.526Z,5.41
2023-03-03T16:40:33.763Z,5.32
2023-03-03T16:43:47.868Z,5.42
2023-03-03T16:46:53.385Z,5.53
2023-03-03T16:50:08.744Z,5.53
2023-03-03T16:53:21.300Z,5.64
2023-03-03T16:56:32.805Z,5.44
2023-03-03T16:59:45.798Z,5.41
2023-03-03T17:03:26.045Z,5.40
2023-03-03T17:06:42.764Z,5.23
2023-03-03T17:10:05.339Z,5.16
2023-03-03T17:13:30.449Z,5.18
2023-03-03T17:16:51.982Z,5.17
2023-03-03T17:20:06.034Z,5.03
2023-03-03T17:23:44.387Z,4.95
2023-03-03T17:27:00.943Z,4.94
2023-03-03T17:30:14.551Z,4.74
2023-03-03T17:33:35.905Z,4.77
2023-03-03T17:36:50.066Z,4.74
2023-03-03T17:40:19.093Z,4.75
2023-03-03T17:43:27.050Z,4.73
2023-03-03T17:46:39.576Z,4.65
2023-03-03T17:50:08.290Z,4.67
2023-03-03T17:53:30.285Z,4.70
2023-03-03T17:56:43.953Z,4.74
2023-03-03T18:00:05.586Z,4.83
2023-03-03T18:03:48.346Z,5.07
2023-03-03T18:07:15.338Z,5.45
2023-03-03T18:10:44.717Z,5.36
2023-03-03T18:14:09.033Z,5.58
2023-03-03T18:17:36.320Z,6.02
2023-03-03T18:21:04.372Z,5.90
2023-03-03T18:24:32.486Z,5.91
2023-03-03T18:27:39.621Z,5.86
2023-03-03T18:30:59.244Z,5.87
2023-03-03T18:34:10.016Z,5.58
2023-03-03T18:37:40.900Z,5.71
2023-03-03T18:40:52.488Z,5.65
2023-03-03T18:43:59.584Z,5.41
2023-03-03T18:47:06.127Z,5.43
2023-03-03T18:50:23.927Z,5.27
2023-03-03T18:53:30.865Z,5.34
2023-03-03T18:56:47.411Z,5.49
2023-03-03T18:59:57.103Z,5.44
2023-03-03T19:03:05.139Z,5.32
2023-03-03T19:06:13.668Z,5.43
2023-03-03T19:09:22.761Z,5.43
2023-03-03T19:12:57.899Z,5.35
2023-03-03T19:16:03.532Z,5.24
2023-03-03T19:19:17.400Z,5.26
2023-03-03T19:22:27.523Z,5.17
2023-03-03T19:25:32.985Z,5.06
2023-03-03T19:28:45.536Z,5.22
2023-03-03T19:31:55.195Z,4.98
2023-03-03T19:35:14.317Z,4.84
2023-03-03T19:38:32.424Z,4.98
2023-03-03T19:41:48.960Z,4.72
2023-03-03T19:45:07.936Z,4.70
2023-03-03T19:48:18.904Z,4.78
2023-03-03T19:51:35.682Z,4.68
2023-03-03T19:54:52.503Z,4.68
2023-03-03T19:58:09.419Z,4.50
2023-03-03T20:01:24.413Z,4.64
2023-03-03T20:05:00.261Z,4.45
2023-03-03T20:08:13.931Z,4.52
2023-03-03T20:11:46.502Z,4.34
2023-03-03T20:14:55.292Z,4.43
2023-03-03T20:18:23.942Z,4.23
2023-03-03T20:21:34.578Z,4.09
2023-03-03T20:25:02.443Z,4.19
2023-03-03T20:28:18.297Z,3.99
2023-03-03T20:31:29.269Z,4.04
2023-03-03T20:34:39.088Z,4.01
2023-03-03T20:37:50.847Z,3.84
2023-03-03T20:41:05.754Z,3.77
2023-03-03T20:44:21.227Z,3.70
2023-03-03T20:47:35.486Z,3.74
2023-03-03T20:50:50.172Z,3.81
2023-03-03T20:54:06.341Z,3.61
2023-03-03T20:57:19.914Z,3.68
2023-03-03T21:00:31.131Z,3.61
2023-03-03T21:03:37.864Z,3.66
2023-03-03T21:06:42.677Z,3.49
2023-03-03T21:09:48.790Z,3.55
2023-03-03T21:12:56.659Z,3.56
2023-03-03T21:16:04.965Z,3.49
2023-03-03T21:19:12.681Z,3.49
2023-03-03T21:22:17.981Z,3.44
2023-03-03T21:25:45.477Z,3.38
2023-03-03T21:29:03.701Z,3.40
2023-03-03T21:32:10.174Z,3.27
2023-03-03T21:35:16.688Z,3.30
2023-03-03T21:38:34.852Z,3.26
2023-03-03T21:41:53.230Z,3.22
2023-03-03T21:44:59.629Z,3.09
2023-03-03T21:48:06.701Z,2.96
2023-03-03T21:51:14.375Z,3.02
2023-03-03T21:54:19.621Z,2.95
2023-03-03T21:57:25.174Z,3.02
2023-03-03T22:00:31.886Z,2.92
2023-03-03T22:03:39.500Z,2.87
2023-03-03T22:06:44.568Z,2.87
2023-03-03T22:09:49.591Z,2.79
2023-03-03T22:12:54.771Z,2.77
2023-03-03T22:16:01.343Z,2.73
2023-03-03T22:19:09.471Z,2.79
2023-03-03T22:22:14.223Z,2.81
2023-03-03T22:25:19.736Z,2.68
2023-03-03T22:28:24.485Z,2.61
2023-03-03T22:31:31.103Z,2.59
2023-03-03T22:34:36.387Z,2.58
2023-03-03T22:37:44.405Z,2.50
2023-03-03T22:40:49.413Z,2.44
2023-03-03T22:43:54.525Z,2.33
2023-03-03T22:47:01.050Z,2.43
2023-03-03T22:50:07.238Z,2.44
2023-03-03T22:53:12.359Z,2.33
2023-03-03T22:56:17.187Z,2.25
2023-03-03T22:59:22.242Z,2.24
2023-03-03T23:02:28.538Z,2.18
2023-03-03T23:05:34.018Z,2.19
2023-03-03T23:08:39.655Z,2.07
2023-03-03T23:11:44.622Z,2.06
2023-03-03T23:14:49.799Z,2.07
2023-03-03T23:17:56.272Z,2.03
2023-03-03T23:21:01.367Z,1.95
2023-03-03T23:24:11.161Z,1.96
2023-03-03T23:27:16.018Z,1.94
2023-03-03T23:30:22.091Z,1.87
2023-03-03T23:33:29.487Z,1.94
2023-03-03T23:36:35.032Z,1.83
2023-03-03T23:39:41.176Z,1.82
2023-03-03T23:42:46.640Z,1.75
2023-03-03T23:45:52.819Z,1.86
2023-03-03T23:48:59.997Z,1.81
2023-03-03T23:52:05.721Z,1.77
2023-03-03T23:55:11.609Z,1.65
2023-03-03T23:58:16.423Z,1.65
